sensor_id;sensor_type;location;lat;lon;timestamp;temperature;humidity
51837;DHT22;38941;53.254;6.600;2022-07-10T00:01:02;15.50;96.90
51837;DHT22;38941;53.254;6.600;2022-07-10T00:03:05;15.50;96.90
51837;DHT22;38941;53.254;6.600;2022-07-10T00:05:06;15.50;96.90
51837;DHT22;38941;53.254;6.600;2022-07-10T00:07:07;15.50;96.90
51837;DHT22;38941;53.254;6.600;2022-07-10T00:09:08;15.50;97.00
51837;DHT22;38941;53.254;6.600;2022-07-10T00:11:09;15.50;96.90
51837;DHT22;38941;53.254;6.600;2022-07-10T00:13:10;15.40;97.00
51837;DHT22;38941;53.254;6.600;2022-07-10T00:15:11;15.40;96.90
51837;DHT22;38941;53.254;6.600;2022-07-10T00:17:12;15.40;96.90
51837;DHT22;38941;53.254;6.600;2022-07-10T00:19:13;15.30;96.90
51837;DHT22;38941;53.254;6.600;2022-07-10T00:21:13;15.30;97.00
51837;DHT22;38941;53.254;6.600;2022-07-10T00:23:14;15.20;96.90
51837;DHT22;38941;53.254;6.600;2022-07-10T00:25:15;15.20;97.00
51837;DHT22;38941;53.254;6.600;2022-07-10T00:27:18;15.20;97.10
51837;DHT22;38941;53.254;6.600;2022-07-10T00:29:21;15.20;97.10
51837;DHT22;38941;53.254;6.600;2022-07-10T00:31:22;15.20;97.10
51837;DHT22;38941;53.254;6.600;2022-07-10T00:33:22;15.20;97.10
51837;DHT22;38941;53.254;6.600;2022-07-10T00:35:23;15.20;97.20
51837;DHT22;38941;53.254;6.600;2022-07-10T00:37:24;15.20;97.50
51837;DHT22;38941;53.254;6.600;2022-07-10T00:39:24;15.20;97.30
51837;DHT22;38941;53.254;6.600;2022-07-10T00:41:25;15.20;97.40
51837;DHT22;38941;53.254;6.600;2022-07-10T00:43:26;15.20;97.50
51837;DHT22;38941;53.254;6.600;2022-07-10T00:45:27;15.20;97.60
51837;DHT22;38941;53.254;6.600;2022-07-10T00:47:27;15.20;97.80
51837;DHT22;38941;53.254;6.600;2022-07-10T00:49:29;14.90;97.90
51837;DHT22;38941;53.254;6.600;2022-07-10T00:51:30;15.20;98.10
51837;DHT22;38941;53.254;6.600;2022-07-10T00:53:31;15.10;98.10
51837;DHT22;38941;53.254;6.600;2022-07-10T00:55:34;15.10;98.30
51837;DHT22;38941;53.254;6.600;2022-07-10T00:57:36;15.10;98.40
51837;DHT22;38941;53.254;6.600;2022-07-10T00:59:38;15.10;98.50
51837;DHT22;38941;53.254;6.600;2022-07-10T01:01:39;15.00;98.50
51837;DHT22;38941;53.254;6.600;2022-07-10T01:03:40;15.00;98.60
51837;DHT22;38941;53.254;6.600;2022-07-10T01:05:41;15.00;98.70
51837;DHT22;38941;53.254;6.600;2022-07-10T01:07:42;15.00;98.70
51837;DHT22;38941;53.254;6.600;2022-07-10T01:09:43;15.00;98.80
51837;DHT22;38941;53.254;6.600;2022-07-10T01:11:44;15.00;98.80
51837;DHT22;38941;53.254;6.600;2022-07-10T01:13:45;15.00;98.70
51837;DHT22;38941;53.254;6.600;2022-07-10T01:15:46;14.90;98.60
51837;DHT22;38941;53.254;6.600;2022-07-10T01:17:47;14.90;98.60
51837;DHT22;38941;53.254;6.600;2022-07-10T01:19:50;15.00;98.50
51837;DHT22;38941;53.254;6.600;2022-07-10T01:21:50;14.90;98.40
51837;DHT22;38941;53.254;6.600;2022-07-10T01:23:51;14.90;98.40
51837;DHT22;38941;53.254;6.600;2022-07-10T01:25:53;14.90;98.30
51837;DHT22;38941;53.254;6.600;2022-07-10T01:27:54;14.90;98.30
51837;DHT22;38941;53.254;6.600;2022-07-10T01:29:55;14.90;98.30
51837;DHT22;38941;53.254;6.600;2022-07-10T01:31:56;14.90;98.30
51837;DHT22;38941;53.254;6.600;2022-07-10T01:33:58;14.90;98.30
51837;DHT22;38941;53.254;6.600;2022-07-10T01:35:59;14.90;98.30
51837;DHT22;38941;53.254;6.600;2022-07-10T01:38:00;14.90;98.20
51837;DHT22;38941;53.254;6.600;2022-07-10T01:40:01;14.90;98.20
51837;DHT22;38941;53.254;6.600;2022-07-10T01:42:01;14.90;98.00
51837;DHT22;38941;53.254;6.600;2022-07-10T01:44:02;14.90;98.00
51837;DHT22;38941;53.254;6.600;2022-07-10T01:46:04;14.80;98.00
51837;DHT22;38941;53.254;6.600;2022-07-10T01:48:05;14.80;98.00
51837;DHT22;38941;53.254;6.600;2022-07-10T01:50:06;14.80;97.90
51837;DHT22;38941;53.254;6.600;2022-07-10T01:52:07;14.80;97.90
51837;DHT22;38941;53.254;6.600;2022-07-10T01:54:07;14.70;97.80
51837;DHT22;38941;53.254;6.600;2022-07-10T01:56:10;14.70;97.90
51837;DHT22;38941;53.254;6.600;2022-07-10T01:58:11;14.70;97.90
51837;DHT22;38941;53.254;6.600;2022-07-10T02:00:12;14.70;98.00
51837;DHT22;38941;53.254;6.600;2022-07-10T02:02:13;14.70;98.00
51837;DHT22;38941;53.254;6.600;2022-07-10T02:04:14;14.70;98.10
51837;DHT22;38941;53.254;6.600;2022-07-10T02:06:33;14.70;98.20
51837;DHT22;38941;53.254;6.600;2022-07-10T02:08:34;14.70;98.20
51837;DHT22;38941;53.254;6.600;2022-07-10T02:10:34;14.70;98.20
51837;DHT22;38941;53.254;6.600;2022-07-10T02:12:35;14.70;98.20
51837;DHT22;38941;53.254;6.600;2022-07-10T02:14:36;14.70;98.30
51837;DHT22;38941;53.254;6.600;2022-07-10T02:16:37;14.70;98.30
51837;DHT22;38941;53.254;6.600;2022-07-10T02:18:38;14.70;98.40
51837;DHT22;38941;53.254;6.600;2022-07-10T02:20:39;14.70;98.50
51837;DHT22;38941;53.254;6.600;2022-07-10T02:22:40;14.60;98.50
51837;DHT22;38941;53.254;6.600;2022-07-10T02:24:41;14.60;98.60
51837;DHT22;38941;53.254;6.600;2022-07-10T02:26:41;14.60;98.70
51837;DHT22;38941;53.254;6.600;2022-07-10T02:28:42;14.50;98.60
51837;DHT22;38941;53.254;6.600;2022-07-10T02:30:43;14.50;98.60
51837;DHT22;38941;53.254;6.600;2022-07-10T02:32:44;14.50;98.60
51837;DHT22;38941;53.254;6.600;2022-07-10T02:34:45;14.40;98.60
51837;DHT22;38941;53.254;6.600;2022-07-10T02:36:46;14.40;98.50
51837;DHT22;38941;53.254;6.600;2022-07-10T02:38:47;14.40;98.30
51837;DHT22;38941;53.254;6.600;2022-07-10T02:40:48;14.40;98.30
51837;DHT22;38941;53.254;6.600;2022-07-10T02:42:49;14.30;98.20
51837;DHT22;38941;53.254;6.600;2022-07-10T02:44:49;14.30;98.20
51837;DHT22;38941;53.254;6.600;2022-07-10T02:46:50;14.30;98.10
51837;DHT22;38941;53.254;6.600;2022-07-10T02:48:52;14.30;98.40
51837;DHT22;38941;53.254;6.600;2022-07-10T02:50:52;14.30;98.10
51837;DHT22;38941;53.254;6.600;2022-07-10T02:52:53;14.30;98.10
51837;DHT22;38941;53.254;6.600;2022-07-10T02:54:53;14.30;98.10
51837;DHT22;38941;53.254;6.600;2022-07-10T02:56:54;14.40;98.10
51837;DHT22;38941;53.254;6.600;2022-07-10T02:58:55;14.40;98.10
51837;DHT22;38941;53.254;6.600;2022-07-10T03:00:55;14.40;98.10
51837;DHT22;38941;53.254;6.600;2022-07-10T03:02:56;14.40;98.10
51837;DHT22;38941;53.254;6.600;2022-07-10T03:04:57;14.40;98.10
51837;DHT22;38941;53.254;6.600;2022-07-10T03:06:58;14.40;98.10
51837;DHT22;38941;53.254;6.600;2022-07-10T03:08:59;14.40;98.10
51837;DHT22;38941;53.254;6.600;2022-07-10T03:11:00;14.40;98.20
51837;DHT22;38941;53.254;6.600;2022-07-10T03:13:00;14.40;98.20
51837;DHT22;38941;53.254;6.600;2022-07-10T03:15:02;14.40;98.30
51837;DHT22;38941;53.254;6.600;2022-07-10T03:17:03;14.40;98.30
51837;DHT22;38941;53.254;6.600;2022-07-10T03:19:03;14.40;98.40
51837;DHT22;38941;53.254;6.600;2022-07-10T03:21:04;14.40;98.50
51837;DHT22;38941;53.254;6.600;2022-07-10T03:23:06;14.40;98.50
51837;DHT22;38941;53.254;6.600;2022-07-10T03:25:07;14.40;98.60
51837;DHT22;38941;53.254;6.600;2022-07-10T03:27:08;14.40;98.70
51837;DHT22;38941;53.254;6.600;2022-07-10T03:29:08;14.40;98.80
51837;DHT22;38941;53.254;6.600;2022-07-10T03:31:09;14.50;98.80
51837;DHT22;38941;53.254;6.600;2022-07-10T03:33:10;14.40;98.90
51837;DHT22;38941;53.254;6.600;2022-07-10T03:35:10;14.50;99.00
51837;DHT22;38941;53.254;6.600;2022-07-10T03:37:11;14.50;99.10
51837;DHT22;38941;53.254;6.600;2022-07-10T03:39:12;14.50;99.10
51837;DHT22;38941;53.254;6.600;2022-07-10T03:41:13;14.60;99.20
51837;DHT22;38941;53.254;6.600;2022-07-10T03:43:14;14.60;99.20
51837;DHT22;38941;53.254;6.600;2022-07-10T03:45:15;14.60;99.20
51837;DHT22;38941;53.254;6.600;2022-07-10T03:47:16;14.70;99.30
51837;DHT22;38941;53.254;6.600;2022-07-10T03:49:16;14.70;99.30
51837;DHT22;38941;53.254;6.600;2022-07-10T03:51:17;14.70;99.30
51837;DHT22;38941;53.254;6.600;2022-07-10T03:53:19;14.70;99.30
51837;DHT22;38941;53.254;6.600;2022-07-10T03:55:20;14.80;99.40
51837;DHT22;38941;53.254;6.600;2022-07-10T03:57:22;14.70;99.40
51837;DHT22;38941;53.254;6.600;2022-07-10T03:59:42;14.80;99.50
51837;DHT22;38941;53.254;6.600;2022-07-10T04:01:42;14.80;99.50
51837;DHT22;38941;53.254;6.600;2022-07-10T04:03:43;14.80;99.70
51837;DHT22;38941;53.254;6.600;2022-07-10T04:05:45;14.80;99.80
51837;DHT22;38941;53.254;6.600;2022-07-10T04:07:45;14.80;99.90
51837;DHT22;38941;53.254;6.600;2022-07-10T04:09:46;14.80;99.90
51837;DHT22;38941;53.254;6.600;2022-07-10T04:11:49;14.90;99.90
51837;DHT22;38941;53.254;6.600;2022-07-10T04:13:49;14.90;99.90
51837;DHT22;38941;53.254;6.600;2022-07-10T04:15:50;14.80;99.90
51837;DHT22;38941;53.254;6.600;2022-07-10T04:17:53;14.90;99.90
51837;DHT22;38941;53.254;6.600;2022-07-10T04:19:54;14.90;99.90
51837;DHT22;38941;53.254;6.600;2022-07-10T04:21:54;14.90;99.90
51837;DHT22;38941;53.254;6.600;2022-07-10T04:23:55;14.90;99.90
51837;DHT22;38941;53.254;6.600;2022-07-10T04:25:56;14.90;99.90
51837;DHT22;38941;53.254;6.600;2022-07-10T04:27:57;14.90;99.90
51837;DHT22;38941;53.254;6.600;2022-07-10T04:29:58;14.90;99.90
51837;DHT22;38941;53.254;6.600;2022-07-10T04:31:59;15.00;99.90
51837;DHT22;38941;53.254;6.600;2022-07-10T04:33:59;14.90;99.90
51837;DHT22;38941;53.254;6.600;2022-07-10T04:36:00;15.00;99.90
51837;DHT22;38941;53.254;6.600;2022-07-10T04:38:01;15.00;99.90
51837;DHT22;38941;53.254;6.600;2022-07-10T04:40:02;15.00;99.90
51837;DHT22;38941;53.254;6.600;2022-07-10T04:42:04;15.00;99.90
51837;DHT22;38941;53.254;6.600;2022-07-10T04:44:06;15.00;99.90
51837;DHT22;38941;53.254;6.600;2022-07-10T04:46:07;15.00;99.90
51837;DHT22;38941;53.254;6.600;2022-07-10T04:48:08;15.00;99.90
51837;DHT22;38941;53.254;6.600;2022-07-10T04:50:09;15.00;99.90
51837;DHT22;38941;53.254;6.600;2022-07-10T04:52:09;15.00;99.90
51837;DHT22;38941;53.254;6.600;2022-07-10T04:54:11;15.10;99.90
51837;DHT22;38941;53.254;6.600;2022-07-10T04:56:12;15.10;99.90
51837;DHT22;38941;53.254;6.600;2022-07-10T04:58:12;15.10;99.90
51837;DHT22;38941;53.254;6.600;2022-07-10T05:00:14;15.10;99.90
51837;DHT22;38941;53.254;6.600;2022-07-10T05:02:16;15.10;99.90
51837;DHT22;38941;53.254;6.600;2022-07-10T05:04:16;15.20;99.90
51837;DHT22;38941;53.254;6.600;2022-07-10T05:06:17;15.20;99.90
51837;DHT22;38941;53.254;6.600;2022-07-10T05:08:18;15.20;99.90
51837;DHT22;38941;53.254;6.600;2022-07-10T05:10:19;15.20;99.90
51837;DHT22;38941;53.254;6.600;2022-07-10T05:12:22;15.30;99.90
51837;DHT22;38941;53.254;6.600;2022-07-10T05:14:23;15.30;99.90
51837;DHT22;38941;53.254;6.600;2022-07-10T05:16:26;15.30;99.90
51837;DHT22;38941;53.254;6.600;2022-07-10T05:18:26;15.40;99.90
51837;DHT22;38941;53.254;6.600;2022-07-10T05:20:27;15.40;99.90
51837;DHT22;38941;53.254;6.600;2022-07-10T05:22:28;15.40;99.90
51837;DHT22;38941;53.254;6.600;2022-07-10T05:24:30;15.40;99.90
51837;DHT22;38941;53.254;6.600;2022-07-10T05:26:31;15.40;99.90
51837;DHT22;38941;53.254;6.600;2022-07-10T05:28:32;15.50;99.90
51837;DHT22;38941;53.254;6.600;2022-07-10T05:30:33;15.50;99.90
51837;DHT22;38941;53.254;6.600;2022-07-10T05:32:36;15.50;99.90
51837;DHT22;38941;53.254;6.600;2022-07-10T05:34:42;15.60;99.90
51837;DHT22;38941;53.254;6.600;2022-07-10T05:36:42;15.60;99.90
51837;DHT22;38941;53.254;6.600;2022-07-10T05:38:43;15.60;99.90
51837;DHT22;38941;53.254;6.600;2022-07-10T05:40:44;15.60;99.90
51837;DHT22;38941;53.254;6.600;2022-07-10T05:42:45;15.70;99.90
51837;DHT22;38941;53.254;6.600;2022-07-10T05:44:46;15.70;99.90
51837;DHT22;38941;53.254;6.600;2022-07-10T05:46:47;15.70;99.90
51837;DHT22;38941;53.254;6.600;2022-07-10T05:48:48;15.80;99.90
51837;DHT22;38941;53.254;6.600;2022-07-10T05:50:48;15.70;99.90
51837;DHT22;38941;53.254;6.600;2022-07-10T05:52:49;15.70;99.90
51837;DHT22;38941;53.254;6.600;2022-07-10T05:54:50;15.80;99.90
51837;DHT22;38941;53.254;6.600;2022-07-10T05:56:51;15.70;99.90
51837;DHT22;38941;53.254;6.600;2022-07-10T05:58:51;15.70;99.90
51837;DHT22;38941;53.254;6.600;2022-07-10T06:00:56;15.80;99.90
51837;DHT22;38941;53.254;6.600;2022-07-10T06:02:57;15.80;99.90
51837;DHT22;38941;53.254;6.600;2022-07-10T06:04:58;15.70;99.90
51837;DHT22;38941;53.254;6.600;2022-07-10T06:07:00;15.80;99.90
51837;DHT22;38941;53.254;6.600;2022-07-10T06:09:00;15.80;99.90
51837;DHT22;38941;53.254;6.600;2022-07-10T06:11:01;15.70;99.90
51837;DHT22;38941;53.254;6.600;2022-07-10T06:13:02;15.80;99.90
51837;DHT22;38941;53.254;6.600;2022-07-10T06:15:03;15.80;99.90
51837;DHT22;38941;53.254;6.600;2022-07-10T06:17:04;15.80;99.90
51837;DHT22;38941;53.254;6.600;2022-07-10T06:19:05;15.90;99.90
51837;DHT22;38941;53.254;6.600;2022-07-10T06:21:06;15.90;99.90
51837;DHT22;38941;53.254;6.600;2022-07-10T06:23:08;15.90;99.90
51837;DHT22;38941;53.254;6.600;2022-07-10T06:25:09;15.90;99.90
51837;DHT22;38941;53.254;6.600;2022-07-10T06:27:11;15.90;99.90
51837;DHT22;38941;53.254;6.600;2022-07-10T06:29:12;16.00;99.90
51837;DHT22;38941;53.254;6.600;2022-07-10T06:31:13;16.00;99.90
51837;DHT22;38941;53.254;6.600;2022-07-10T06:33:14;16.00;99.90
51837;DHT22;38941;53.254;6.600;2022-07-10T06:35:14;16.00;99.90
51837;DHT22;38941;53.254;6.600;2022-07-10T06:37:15;16.00;99.90
51837;DHT22;38941;53.254;6.600;2022-07-10T06:39:17;15.90;99.90
51837;DHT22;38941;53.254;6.600;2022-07-10T06:41:18;15.90;99.90
51837;DHT22;38941;53.254;6.600;2022-07-10T06:43:18;15.90;99.90
51837;DHT22;38941;53.254;6.600;2022-07-10T06:45:19;15.90;99.90
51837;DHT22;38941;53.254;6.600;2022-07-10T06:47:21;15.90;99.90
51837;DHT22;38941;53.254;6.600;2022-07-10T06:49:40;15.90;99.90
51837;DHT22;38941;53.254;6.600;2022-07-10T06:51:41;15.90;99.90
51837;DHT22;38941;53.254;6.600;2022-07-10T06:53:42;16.00;99.90
51837;DHT22;38941;53.254;6.600;2022-07-10T06:55:43;16.00;99.90
51837;DHT22;38941;53.254;6.600;2022-07-10T06:57:44;16.00;99.90
51837;DHT22;38941;53.254;6.600;2022-07-10T06:59:45;16.10;99.90
51837;DHT22;38941;53.254;6.600;2022-07-10T07:01:46;16.10;99.90
51837;DHT22;38941;53.254;6.600;2022-07-10T07:03:46;16.20;99.90
51837;DHT22;38941;53.254;6.600;2022-07-10T07:05:47;16.20;99.90
51837;DHT22;38941;53.254;6.600;2022-07-10T07:07:48;16.20;99.90
51837;DHT22;38941;53.254;6.600;2022-07-10T07:09:48;16.30;99.90
51837;DHT22;38941;53.254;6.600;2022-07-10T07:11:50;16.30;99.90
51837;DHT22;38941;53.254;6.600;2022-07-10T07:13:51;16.30;99.90
51837;DHT22;38941;53.254;6.600;2022-07-10T07:15:52;16.40;99.90
51837;DHT22;38941;53.254;6.600;2022-07-10T07:18:00;16.40;99.90
51837;DHT22;38941;53.254;6.600;2022-07-10T07:20:17;16.50;99.90
51837;DHT22;38941;53.254;6.600;2022-07-10T07:22:37;16.60;99.90
51837;DHT22;38941;53.254;6.600;2022-07-10T07:24:56;16.60;99.90
51837;DHT22;38941;53.254;6.600;2022-07-10T07:26:57;16.70;99.90
51837;DHT22;38941;53.254;6.600;2022-07-10T07:28:58;16.70;99.90
51837;DHT22;38941;53.254;6.600;2022-07-10T07:30:58;16.70;99.90
51837;DHT22;38941;53.254;6.600;2022-07-10T07:33:00;16.70;99.90
51837;DHT22;38941;53.254;6.600;2022-07-10T07:35:01;16.60;99.90
51837;DHT22;38941;53.254;6.600;2022-07-10T07:37:02;16.60;99.90
51837;DHT22;38941;53.254;6.600;2022-07-10T07:39:04;16.50;99.90
51837;DHT22;38941;53.254;6.600;2022-07-10T07:41:06;16.60;99.90
51837;DHT22;38941;53.254;6.600;2022-07-10T07:43:07;16.60;99.90
51837;DHT22;38941;53.254;6.600;2022-07-10T07:45:08;16.60;99.90
51837;DHT22;38941;53.254;6.600;2022-07-10T07:47:15;16.60;99.90
51837;DHT22;38941;53.254;6.600;2022-07-10T07:49:17;16.70;99.90
51837;DHT22;38941;53.254;6.600;2022-07-10T07:51:18;16.80;99.90
51837;DHT22;38941;53.254;6.600;2022-07-10T07:53:18;16.90;99.90
51837;DHT22;38941;53.254;6.600;2022-07-10T07:55:20;17.00;99.90
51837;DHT22;38941;53.254;6.600;2022-07-10T07:57:21;17.00;99.90
51837;DHT22;38941;53.254;6.600;2022-07-10T07:59:22;17.00;99.90
51837;DHT22;38941;53.254;6.600;2022-07-10T08:01:24;17.00;99.90
51837;DHT22;38941;53.254;6.600;2022-07-10T08:03:26;17.00;99.90
51837;DHT22;38941;53.254;6.600;2022-07-10T08:05:27;17.00;99.90
51837;DHT22;38941;53.254;6.600;2022-07-10T08:07:39;17.00;99.90
51837;DHT22;38941;53.254;6.600;2022-07-10T08:09:40;17.00;99.90
51837;DHT22;38941;53.254;6.600;2022-07-10T08:11:41;16.90;99.90
51837;DHT22;38941;53.254;6.600;2022-07-10T08:13:41;16.90;99.90
51837;DHT22;38941;53.254;6.600;2022-07-10T08:15:44;16.80;99.90
51837;DHT22;38941;53.254;6.600;2022-07-10T08:17:49;16.80;99.90
51837;DHT22;38941;53.254;6.600;2022-07-10T08:19:50;16.70;99.90
51837;DHT22;38941;53.254;6.600;2022-07-10T08:21:51;16.80;99.90
51837;DHT22;38941;53.254;6.600;2022-07-10T08:23:58;16.80;99.90
51837;DHT22;38941;53.254;6.600;2022-07-10T08:25:59;16.90;99.90
51837;DHT22;38941;53.254;6.600;2022-07-10T08:28:04;17.00;99.90
51837;DHT22;38941;53.254;6.600;2022-07-10T08:30:07;17.00;99.90
51837;DHT22;38941;53.254;6.600;2022-07-10T08:32:11;17.10;99.90
51837;DHT22;38941;53.254;6.600;2022-07-10T08:34:13;17.10;99.90
51837;DHT22;38941;53.254;6.600;2022-07-10T08:36:15;17.10;99.90
51837;DHT22;38941;53.254;6.600;2022-07-10T08:38:16;17.20;99.90
51837;DHT22;38941;53.254;6.600;2022-07-10T08:40:16;17.20;99.90
51837;DHT22;38941;53.254;6.600;2022-07-10T08:42:20;17.20;99.90
51837;DHT22;38941;53.254;6.600;2022-07-10T08:44:21;17.30;99.90
51837;DHT22;38941;53.254;6.600;2022-07-10T08:46:23;17.30;99.90
51837;DHT22;38941;53.254;6.600;2022-07-10T08:48:24;17.40;99.90
51837;DHT22;38941;53.254;6.600;2022-07-10T08:50:26;17.50;99.90
51837;DHT22;38941;53.254;6.600;2022-07-10T08:52:43;17.60;99.90
51837;DHT22;38941;53.254;6.600;2022-07-10T08:54:45;17.80;99.90
51837;DHT22;38941;53.254;6.600;2022-07-10T08:56:46;17.90;99.90
51837;DHT22;38941;53.254;6.600;2022-07-10T08:58:47;18.10;99.90
51837;DHT22;38941;53.254;6.600;2022-07-10T09:00:50;18.20;99.90
51837;DHT22;38941;53.254;6.600;2022-07-10T09:02:53;18.20;99.90
51837;DHT22;38941;53.254;6.600;2022-07-10T09:04:54;18.30;99.90
51837;DHT22;38941;53.254;6.600;2022-07-10T09:06:55;18.30;99.90
51837;DHT22;38941;53.254;6.600;2022-07-10T09:09:03;18.30;99.90
51837;DHT22;38941;53.254;6.600;2022-07-10T09:11:18;18.30;99.90
51837;DHT22;38941;53.254;6.600;2022-07-10T09:13:19;18.40;99.90
51837;DHT22;38941;53.254;6.600;2022-07-10T09:15:22;18.50;99.90
51837;DHT22;38941;53.254;6.600;2022-07-10T09:17:23;18.60;99.90
51837;DHT22;38941;53.254;6.600;2022-07-10T09:19:28;18.70;99.90
51837;DHT22;38941;53.254;6.600;2022-07-10T09:21:32;18.70;99.90
51837;DHT22;38941;53.254;6.600;2022-07-10T09:23:33;18.60;99.90
51837;DHT22;38941;53.254;6.600;2022-07-10T09:25:34;18.60;99.90
51837;DHT22;38941;53.254;6.600;2022-07-10T09:27:53;18.60;99.90
51837;DHT22;38941;53.254;6.600;2022-07-10T09:29:54;18.60;99.90
51837;DHT22;38941;53.254;6.600;2022-07-10T09:32:00;18.50;99.90
51837;DHT22;38941;53.254;6.600;2022-07-10T09:34:01;18.50;99.90
51837;DHT22;38941;53.254;6.600;2022-07-10T09:36:10;18.50;99.90
51837;DHT22;38941;53.254;6.600;2022-07-10T09:38:14;18.50;99.90
51837;DHT22;38941;53.254;6.600;2022-07-10T09:40:15;18.50;99.90
51837;DHT22;38941;53.254;6.600;2022-07-10T09:42:27;18.50;99.90
51837;DHT22;38941;53.254;6.600;2022-07-10T09:44:28;18.50;99.90
51837;DHT22;38941;53.254;6.600;2022-07-10T09:46:34;18.40;99.90
51837;DHT22;38941;53.254;6.600;2022-07-10T09:48:36;18.40;99.90
51837;DHT22;38941;53.254;6.600;2022-07-10T09:50:37;18.30;99.90
51837;DHT22;38941;53.254;6.600;2022-07-10T09:52:38;18.30;99.90
51837;DHT22;38941;53.254;6.600;2022-07-10T09:54:39;18.20;99.90
51837;DHT22;38941;53.254;6.600;2022-07-10T09:56:47;18.10;99.90
51837;DHT22;38941;53.254;6.600;2022-07-10T09:58:51;17.90;99.90
51837;DHT22;38941;53.254;6.600;2022-07-10T10:00:53;17.80;99.90
51837;DHT22;38941;53.254;6.600;2022-07-10T10:02:59;17.80;99.90
51837;DHT22;38941;53.254;6.600;2022-07-10T10:05:00;17.80;99.90
51837;DHT22;38941;53.254;6.600;2022-07-10T10:07:01;17.90;99.90
51837;DHT22;38941;53.254;6.600;2022-07-10T10:09:14;17.90;99.90
51837;DHT22;38941;53.254;6.600;2022-07-10T10:11:19;18.00;99.90
51837;DHT22;38941;53.254;6.600;2022-07-10T10:13:25;18.10;99.90
51837;DHT22;38941;53.254;6.600;2022-07-10T10:15:30;18.00;99.90
51837;DHT22;38941;53.254;6.600;2022-07-10T10:17:32;17.90;99.90
51837;DHT22;38941;53.254;6.600;2022-07-10T10:19:36;18.00;99.90
51837;DHT22;38941;53.254;6.600;2022-07-10T10:21:59;18.00;99.90
51837;DHT22;38941;53.254;6.600;2022-07-10T10:24:01;18.00;99.90
51837;DHT22;38941;53.254;6.600;2022-07-10T10:26:02;18.10;99.90
51837;DHT22;38941;53.254;6.600;2022-07-10T10:28:05;18.10;99.90
51837;DHT22;38941;53.254;6.600;2022-07-10T10:30:07;18.20;99.90
51837;DHT22;38941;53.254;6.600;2022-07-10T10:32:11;18.30;99.90
51837;DHT22;38941;53.254;6.600;2022-07-10T10:34:12;18.40;99.90
51837;DHT22;38941;53.254;6.600;2022-07-10T10:36:14;18.60;99.90
51837;DHT22;38941;53.254;6.600;2022-07-10T10:38:17;18.70;99.90
51837;DHT22;38941;53.254;6.600;2022-07-10T10:40:32;18.90;99.90
51837;DHT22;38941;53.254;6.600;2022-07-10T10:42:43;19.10;99.90
51837;DHT22;38941;53.254;6.600;2022-07-10T10:44:44;19.20;99.90
51837;DHT22;38941;53.254;6.600;2022-07-10T10:49:05;19.20;99.90
51837;DHT22;38941;53.254;6.600;2022-07-10T10:51:07;19.00;99.90
51837;DHT22;38941;53.254;6.600;2022-07-10T10:53:25;18.80;99.90
51837;DHT22;38941;53.254;6.600;2022-07-10T10:55:29;18.60;99.90
51837;DHT22;38941;53.254;6.600;2022-07-10T10:59:52;18.30;99.90
51837;DHT22;38941;53.254;6.600;2022-07-10T11:02:28;18.30;99.90
51837;DHT22;38941;53.254;6.600;2022-07-10T11:04:29;18.30;99.90
51837;DHT22;38941;53.254;6.600;2022-07-10T11:06:50;18.30;99.90
51837;DHT22;38941;53.254;6.600;2022-07-10T11:08:51;18.30;99.90
51837;DHT22;38941;53.254;6.600;2022-07-10T11:10:53;18.30;99.90
51837;DHT22;38941;53.254;6.600;2022-07-10T11:15:05;18.60;99.90
51837;DHT22;38941;53.254;6.600;2022-07-10T11:17:15;18.70;99.90
51837;DHT22;38941;53.254;6.600;2022-07-10T11:19:28;19.00;99.90
51837;DHT22;38941;53.254;6.600;2022-07-10T11:21:38;19.10;99.90
51837;DHT22;38941;53.254;6.600;2022-07-10T11:26:06;19.30;99.90
51837;DHT22;38941;53.254;6.600;2022-07-10T11:28:11;19.20;99.90
51837;DHT22;38941;53.254;6.600;2022-07-10T11:30:13;19.20;99.90
51837;DHT22;38941;53.254;6.600;2022-07-10T11:32:17;19.10;99.90
51837;DHT22;38941;53.254;6.600;2022-07-10T11:34:18;19.00;99.90
51837;DHT22;38941;53.254;6.600;2022-07-10T11:36:23;18.90;99.90
51837;DHT22;38941;53.254;6.600;2022-07-10T11:38:29;18.90;99.90
51837;DHT22;38941;53.254;6.600;2022-07-10T11:40:36;18.90;99.90
51837;DHT22;38941;53.254;6.600;2022-07-10T11:42:57;18.80;99.90
51837;DHT22;38941;53.254;6.600;2022-07-10T11:44:59;18.80;99.90
51837;DHT22;38941;53.254;6.600;2022-07-10T11:47:21;18.80;99.90
51837;DHT22;38941;53.254;6.600;2022-07-10T11:49:22;18.90;99.90
51837;DHT22;38941;53.254;6.600;2022-07-10T11:51:26;18.90;99.90
51837;DHT22;38941;53.254;6.600;2022-07-10T11:53:28;19.00;99.90
51837;DHT22;38941;53.254;6.600;2022-07-10T11:55:28;19.10;99.90
51837;DHT22;38941;53.254;6.600;2022-07-10T11:57:38;19.10;99.90
51837;DHT22;38941;53.254;6.600;2022-07-10T11:59:41;19.10;99.90
51837;DHT22;38941;53.254;6.600;2022-07-10T12:01:50;19.20;99.90
51837;DHT22;38941;53.254;6.600;2022-07-10T12:04:04;19.10;99.90
51837;DHT22;38941;53.254;6.600;2022-07-10T12:06:06;19.10;99.90
51837;DHT22;38941;53.254;6.600;2022-07-10T12:08:07;19.20;99.90
51837;DHT22;38941;53.254;6.600;2022-07-10T12:10:08;19.20;99.90
51837;DHT22;38941;53.254;6.600;2022-07-10T12:12:09;19.20;99.90
51837;DHT22;38941;53.254;6.600;2022-07-10T12:14:15;19.20;99.90
51837;DHT22;38941;53.254;6.600;2022-07-10T12:16:18;19.20;99.90
51837;DHT22;38941;53.254;6.600;2022-07-10T12:18:20;19.20;99.90
51837;DHT22;38941;53.254;6.600;2022-07-10T12:20:21;19.20;99.90
51837;DHT22;38941;53.254;6.600;2022-07-10T12:22:22;19.20;99.90
51837;DHT22;38941;53.254;6.600;2022-07-10T12:24:25;19.30;99.90
51837;DHT22;38941;53.254;6.600;2022-07-10T12:26:34;19.40;99.90
51837;DHT22;38941;53.254;6.600;2022-07-10T12:28:52;19.40;99.90
51837;DHT22;38941;53.254;6.600;2022-07-10T12:30:53;19.40;99.90
51837;DHT22;38941;53.254;6.600;2022-07-10T12:32:54;19.40;99.90
51837;DHT22;38941;53.254;6.600;2022-07-10T12:34:58;19.30;99.90
51837;DHT22;38941;53.254;6.600;2022-07-10T12:37:09;19.40;99.90
51837;DHT22;38941;53.254;6.600;2022-07-10T12:39:11;19.40;99.90
51837;DHT22;38941;53.254;6.600;2022-07-10T12:41:13;19.50;99.90
51837;DHT22;38941;53.254;6.600;2022-07-10T12:43:29;19.50;99.90
51837;DHT22;38941;53.254;6.600;2022-07-10T12:45:30;19.40;99.90
51837;DHT22;38941;53.254;6.600;2022-07-10T12:47:48;19.30;99.90
51837;DHT22;38941;53.254;6.600;2022-07-10T12:51:52;19.00;99.90
51837;DHT22;38941;53.254;6.600;2022-07-10T12:53:53;19.00;99.90
51837;DHT22;38941;53.254;6.600;2022-07-10T12:55:54;18.90;99.90
51837;DHT22;38941;53.254;6.600;2022-07-10T12:58:07;18.80;99.90
51837;DHT22;38941;53.254;6.600;2022-07-10T13:00:10;18.80;99.90
51837;DHT22;38941;53.254;6.600;2022-07-10T13:02:21;18.80;99.90
51837;DHT22;38941;53.254;6.600;2022-07-10T13:04:25;18.80;99.90
51837;DHT22;38941;53.254;6.600;2022-07-10T13:06:32;18.80;99.90